• Join FlightAware (Why Join?)
  • Login
  • US Flag 
01:49PM EDT


 

Airport Tracker/Info


-or-


 

Live Flight TrackerFlight Track Log ✈ JBU19 ✈ 08-Jun-2013 ✈ KBTV - KJFK

Flight Track Log - Related Links

Times and Time Zones

All times are in EDT time to prevent confusion due to time zone crossing. See the JBU19 flight status page for this flight to view local times or setup timezone preferences in your user account.

Time Position Orientation Groundspeed Altitude Reporting Facility
EDT Latitude Longitude Course Direction KTS MPH feet Rate Location/Type
06:07AM 44.4061 -73.2886 196° South 278 320 7,600  Level Boston Center
06:08AM 44.3289 -73.3164 194° South 284 327 10,800 2,400 Climbing Boston Center
06:09AM 44.0859 -73.2928 195° South  Level FlightAware Approximate
06:09AM 44.2347 -73.3469 193° South 322 371 12,400  Level Boston Center
06:10AM 44.0090 -73.3193 194° South  Level FlightAware Approximate
06:10AM 44.1386 -73.3772 193° South 348 400 15,100  Level Boston Center
06:11AM 43.9557 -73.3370 193° South  Level FlightAware Approximate
06:11AM 44.0406 -73.4075 193° South 360 414 17,800  Level Boston Center
06:12AM 43.9025 -73.3557 196° South  Level FlightAware Approximate
06:12AM 43.9464 -73.4581 201° Southwest 360 414 20,100  Level Boston Center
06:13AM 43.8394 -73.5222 203° Southwest 375 432 22,300 1,920 Climbing Boston Center
06:14AM 43.7408 -73.5839 204° Southwest 381 438 24,000 1,500 Climbing Boston Center
06:15AM 43.6508 -73.6339 202° Southwest 393 452 25,400 960 Climbing Boston Center
06:16AM 43.5500 -73.6975 205° Southwest 398 458 26,000 300 Climbing Boston Center
06:17AM 43.4433 -73.7325 193° South 398 458 26,000  Level Boston Center
06:18AM 43.3286 -73.7472 185° South 404 465 26,000  Level Boston Center
06:19AM 43.2181 -73.7564 183° South 404 465 26,000  Level Boston Center
06:20AM 43.1075 -73.7681 184° South 410 472 26,000  Level Boston Center
06:21AM 42.9928 -73.7800 184° South 410 472 26,000  Level Boston Center
06:22AM 42.8822 -73.7889 183° South 410 472 26,000  Level Boston Center
06:23AM 42.7694 -73.8033 185° South 405 466 26,000  Level Boston Center
06:24AM 42.6442 -73.8119 183° South 405 466 26,000  Level Boston Center
06:25AM 42.5358 -73.8122 180° South 405 466 26,000  Level Boston Center
06:26AM 42.4211 -73.8153 181° South 405 466 26,000  Level Boston Center
06:27AM 42.3086 -73.8186 181° South 405 466 26,000  Level Boston Center
06:28AM 42.1983 -73.8189 180° South 405 466 26,000  Level Boston Center
06:29AM 42.0939 -73.8194 180° South 405 466 26,000  Level Boston Center
06:30AM 41.9833 -73.8336 185° South 405 466 26,000 -180 Level Boston Center
06:31AM 41.8764 -73.8761 196° South 405 466 25,700 -840 Descending Boston Center
06:32AM 41.7656 -73.9181 196° South 398 458 24,400 -1,320 Descending Boston Center
06:34AM 41.6075 -73.9783 196° South 393 452 22,500 -1,200 Descending New York Center
06:35AM 41.5211 -74.0128 197° South 379 436 21,500 -1,140 Descending New York Center
06:36AM 41.4244 -74.0469 195° South 373 429 20,300 -780 Descending New York Center
06:37AM 41.3436 -74.1011 207° Southwest 348 400 20,000 -180 Descending New York Center
06:38AM 41.2814 -74.1725 221° Southwest 327 376 20,000  Level New York Center
06:39AM 41.2328 -74.2639 235° Southwest 306 352 20,000  Level New York Center
06:40AM 41.1842 -74.3578 235° Southwest 306 352 20,000  Level New York Center
06:41AM 41.1197 -74.4258 219° Southwest 306 352 20,000 -300 Level New York Center
06:42AM 41.0358 -74.4406 188° South 300 345 19,500 -540 Descending New York Center
06:43AM 40.9792 -74.3222 122° Southeast 274 315 19,000 -360 Descending New York Center
06:43AM 40.9500 -74.2667 125° Southeast 352 405 19,000  Level New York TRACON
06:44AM 40.8833 -74.1833 137° Southeast 338 389 19,000 -660 Level New York TRACON
06:45AM 40.8333 -74.0667 119° Southeast 357 411 17,700 -1,500 Descending New York TRACON
06:46AM 40.8000 -73.9500 111° Southeast 349 402 15,900 -1,920 Descending New York TRACON
06:47AM 40.7667 -73.8333 111° Southeast 348 400 13,900 -1,500 Descending New York TRACON
06:48AM 40.7333 -73.7333 114° Southeast 354 407 13,100 -1,500 Descending New York TRACON
06:49AM 40.7000 -73.6167 111° Southeast 337 388 11,000 -1,920 Descending New York TRACON
06:50AM 40.7000 -73.5000 90° East 317 365 9,100 -1,980 Descending New York TRACON
06:51AM 40.7167 -73.3667 81° East 319 367 6,900 -1,620 Descending New York TRACON
06:52AM 40.6667 -73.3000 135° Southeast 301 346 5,700 -1,380 Descending New York TRACON
06:53AM 40.6000 -73.3167 191° South 231 266 4,100 -1,140 Descending New York TRACON
06:54AM 40.5333 -73.3500 201° Southwest 243 280 3,400 -540 Descending New York TRACON
06:55AM 40.5000 -73.4167 237° Southwest 200 230 3,100 -180 Descending New York TRACON
06:56AM 40.5167 -73.4667 294° West 185 213 3,100  Level New York TRACON
06:57AM 40.5333 -73.5333 288° West 170 196 3,100 -60 Level New York TRACON
06:58AM 40.5667 -73.5833 311° West 155 178 3,000 -300 Descending New York TRACON
06:59AM 40.5833 -73.6167 303° West 126 145 2,500 -600 Descending New York TRACON
07:00AM 40.6000 -73.6667 294° West 129 148 1,800 -660 Descending New York TRACON
07:01AM 40.6167 -73.7000 303° West 116 133 1,200 -660 Descending New York TRACON
07:02AM 40.6333 -73.7333 303° West 116 133 500 -720 Descending New York TRACON
07:04AM 40.6333 -73.7667 180° South  Level FlightAware Approximate